Overview Statistics Trail Chart Weather Telemetry Raw packets
 

This is the latest recevied weather packets stored in our database for station/object VY2CRA-4. If no packets are shown the sender has not sent any weather packets the latest 10 day(s).

<< 6 7 8 9 10 11 12 >>
Time Temp. Humidity Pressure Rain* Wind** Luminosity Snow
1788323270 16.67° C 52% 1018.1 hPa 0 mm - - -
1788322069 17.22° C 52% 1018 hPa 0 mm - - -
1788320868 17.22° C 51% 1017.9 hPa 0 mm - - -
1788319667 17.78° C 51% 1017.8 hPa 0 mm - - -
1788318466 17.78° C 50% 1017.8 hPa 0 mm - - -
1788317265 18.33° C 49% 1017.7 hPa 0 mm - - -
1788316064 18.33° C 47% 1017.8 hPa 0 mm - - -
1788314864 18.89° C 46% 1017.6 hPa 0 mm - - -
1788313663 19.44° C 45% 1017.5 hPa 0 mm - - -
1788312462 20° C 43% 1017.4 hPa 0 mm - - -
1788311261 20.56° C 42% 1017.3 hPa 0 mm - - -
1788310060 21.11° C 40% 1017.2 hPa 0 mm - - -
1788308859 22.22° C 39% 1017.3 hPa 0 mm - - -
1788307658 22.22° C 38% 1017.2 hPa 0 mm - - -
1788306457 22.78° C 37% 1017 hPa 0 mm - - -
1788304055 23.89° C 33% 1016.6 hPa 0 mm - - -
1788302854 24.44° C 32% 1016.4 hPa 0 mm - - -
1788300452 26.11° C 29% 1016.1 hPa 0 mm - - -
1788299252 26.11° C 29% 1016 hPa 0 mm - - -
1788296850 26.67° C 28% 1015.8 hPa 0 mm - - -
1788295650 26.67° C 29% 1015.6 hPa 0 mm - - -
1788294448 26.67° C 29% 1015.5 hPa 0 mm - - -
1788293247 26.11° C 31% 1015.3 hPa 0 mm - - -
1788292046 25.56° C 31% 1015.2 hPa 0 mm - - -
1788290845 25° C 33% 1015 hPa 0 mm - - -

* Rain since midnight (hover to see other rain measurements)
** Current wind speed in m/s (hover to see current wind gust speed)